createdAt,value
2023-01-05T00:02:24.022Z,21.32
2023-01-05T00:04:55.494Z,21.08
2023-01-05T00:07:26.446Z,21.30
2023-01-05T00:09:57.556Z,21.52
2023-01-05T00:12:46.970Z,21.59
2023-01-05T00:15:36.105Z,21.47
2023-01-05T00:18:25.086Z,21.71
2023-01-05T00:21:13.931Z,21.63
2023-01-05T00:23:44.995Z,21.46
2023-01-05T00:26:15.916Z,21.81
2023-01-05T00:28:46.920Z,21.98
2023-01-05T00:31:18.340Z,21.93
2023-01-05T00:33:50.914Z,22.23
2023-01-05T00:36:21.992Z,22.19
2023-01-05T00:38:53.044Z,21.84
2023-01-05T00:41:24.083Z,21.86
2023-01-05T00:43:55.383Z,21.79
2023-01-05T00:46:26.591Z,21.69
2023-01-05T00:48:58.152Z,21.69
2023-01-05T00:51:29.333Z,21.57
2023-01-05T00:54:00.471Z,21.49
2023-01-05T00:56:31.823Z,21.83
2023-01-05T00:59:03.300Z,22.01
2023-01-05T01:01:34.910Z,22.10
2023-01-05T01:04:05.931Z,22.46
2023-01-05T01:06:36.972Z,22.39
2023-01-05T01:09:08.209Z,22.59
2023-01-05T01:11:40.011Z,22.47
2023-01-05T01:14:12.172Z,22.67
2023-01-05T01:16:46.441Z,22.34
2023-01-05T01:19:20.114Z,22.17
2023-01-05T01:21:51.614Z,22.37
2023-01-05T01:24:26.025Z,22.19
2023-01-05T01:26:58.008Z,21.97
2023-01-05T01:29:29.513Z,21.78
2023-01-05T01:32:01.250Z,21.72
2023-01-05T01:34:33.025Z,21.62
2023-01-05T01:39:38.007Z,21.59
2023-01-05T01:42:17.030Z,21.44
2023-01-05T01:44:55.387Z,21.41
2023-01-05T01:47:56.128Z,21.36
2023-01-05T01:50:27.548Z,21.32
2023-01-05T01:53:09.142Z,21.14
2023-01-05T01:55:41.903Z,21.13
2023-01-05T01:58:17.196Z,21.08
2023-01-05T02:00:49.545Z,21.03
2023-01-05T02:03:22.741Z,20.93
2023-01-05T02:05:54.100Z,20.96
2023-01-05T02:08:33.063Z,21.07
2023-01-05T02:11:20.551Z,21.07
2023-01-05T02:14:09.749Z,20.99
2023-01-05T02:17:03.361Z,21.12
2023-01-05T02:20:09.053Z,21.01
2023-01-05T02:22:46.258Z,20.85
2023-01-05T02:25:37.188Z,20.91
2023-01-05T02:28:45.491Z,20.78
2023-01-05T02:31:34.935Z,20.83
2023-01-05T02:34:59.282Z,20.89
2023-01-05T02:37:58.394Z,20.83
2023-01-05T02:40:34.569Z,21.04
2023-01-05T02:43:08.640Z,20.84
2023-01-05T02:45:40.077Z,20.81
2023-01-05T02:48:12.467Z,20.86
2023-01-05T02:51:02.599Z,21.15
2023-01-05T02:53:41.676Z,21.22
2023-01-05T02:56:18.725Z,20.96
2023-01-05T02:59:03.169Z,20.67
2023-01-05T03:01:55.700Z,20.54
2023-01-05T03:04:44.644Z,20.58
2023-01-05T03:07:21.849Z,20.76
2023-01-05T03:09:53.567Z,20.96
2023-01-05T03:12:54.689Z,21.06
2023-01-05T03:15:32.431Z,21.26
2023-01-05T03:18:09.047Z,21.37
2023-01-05T03:20:47.167Z,21.48
2023-01-05T03:23:38.832Z,21.64
2023-01-05T03:26:28.803Z,21.62
2023-01-05T03:29:20.262Z,21.44
2023-01-05T03:32:27.265Z,21.43
2023-01-05T03:35:35.217Z,21.44
2023-01-05T03:38:31.349Z,21.41
2023-01-05T03:41:06.276Z,21.55
2023-01-05T03:43:38.894Z,21.38
2023-01-05T03:46:17.440Z,21.30
2023-01-05T03:48:49.954Z,21.49
2023-01-05T03:51:23.372Z,21.34
2023-01-05T03:53:54.504Z,21.09
2023-01-05T03:56:25.668Z,21.21
2023-01-05T03:58:59.784Z,21.08
2023-01-05T04:01:31.754Z,21.11
2023-01-05T04:04:05.203Z,21.20
2023-01-05T04:06:37.359Z,21.06
2023-01-05T04:09:08.638Z,21.02
2023-01-05T04:11:42.424Z,21.06
2023-01-05T04:14:13.269Z,21.09
2023-01-05T04:16:45.277Z,20.82
2023-01-05T04:19:22.004Z,20.82
2023-01-05T04:21:55.983Z,20.90
2023-01-05T04:24:28.410Z,20.86
2023-01-05T04:26:59.379Z,20.71
2023-01-05T04:29:31.515Z,20.52
2023-01-05T04:32:04.190Z,20.68
2023-01-05T04:34:36.015Z,20.79
2023-01-05T04:37:06.810Z,20.70
2023-01-05T04:39:38.487Z,20.79
2023-01-05T04:42:11.319Z,20.84
2023-01-05T04:44:43.679Z,20.72
2023-01-05T04:47:14.475Z,20.67
2023-01-05T04:49:45.641Z,20.80
2023-01-05T04:52:18.996Z,20.91
2023-01-05T04:54:52.144Z,20.87
2023-01-05T04:57:23.349Z,20.84
2023-01-05T04:59:55.937Z,20.99
2023-01-05T05:02:30.435Z,20.88
2023-01-05T05:05:02.233Z,21.02
2023-01-05T05:07:34.310Z,21.13
2023-01-05T05:10:08.315Z,21.09
2023-01-05T05:12:39.755Z,21.01
2023-01-05T05:15:11.682Z,20.84
2023-01-05T05:17:47.586Z,20.79
2023-01-05T05:20:20.390Z,20.79
2023-01-05T05:22:52.616Z,20.82
2023-01-05T05:25:24.946Z,20.80
2023-01-05T05:27:56.194Z,20.95
2023-01-05T05:30:27.435Z,20.92
2023-01-05T05:32:58.463Z,21.03
2023-01-05T05:35:29.697Z,21.16
2023-01-05T05:38:01.159Z,21.11
2023-01-05T05:40:31.792Z,21.16
2023-01-05T05:43:03.199Z,21.20
2023-01-05T05:45:34.394Z,21.23
2023-01-05T05:48:05.631Z,21.21
2023-01-05T05:50:36.570Z,21.13
2023-01-05T05:53:09.739Z,21.00
2023-01-05T05:55:40.464Z,21.13
2023-01-05T05:58:11.555Z,21.19
2023-01-05T06:00:43.221Z,21.12
2023-01-05T06:03:14.808Z,21.28
2023-01-05T06:05:49.172Z,21.26
2023-01-05T06:08:20.844Z,21.39
2023-01-05T06:10:52.607Z,21.37
2023-01-05T06:13:24.881Z,21.50
2023-01-05T06:15:59.050Z,21.41
2023-01-05T06:18:33.654Z,21.25
2023-01-05T06:21:04.982Z,21.34
2023-01-05T06:23:35.907Z,21.23
2023-01-05T06:26:10.114Z,21.26
2023-01-05T06:28:41.359Z,21.27
2023-01-05T06:31:13.757Z,21.06
2023-01-05T06:33:45.099Z,21.12
2023-01-05T06:36:17.737Z,21.04
2023-01-05T06:38:48.904Z,21.03
2023-01-05T06:41:20.127Z,20.92
2023-01-05T06:43:51.490Z,20.77
2023-01-05T06:46:22.638Z,20.87
2023-01-05T06:48:54.188Z,20.81
2023-01-05T06:51:25.260Z,20.77
2023-01-05T06:53:56.355Z,20.78
2023-01-05T06:56:27.463Z,20.71
2023-01-05T06:58:58.363Z,20.71
2023-01-05T07:01:29.765Z,20.75
2023-01-05T07:04:01.604Z,20.69
2023-01-05T07:06:33.273Z,20.72
2023-01-05T07:09:05.344Z,20.67
2023-01-05T07:11:36.038Z,20.70
2023-01-05T07:14:07.337Z,20.73
2023-01-05T07:16:38.703Z,20.69
2023-01-05T07:19:10.037Z,20.62
2023-01-05T07:21:41.303Z,20.62
2023-01-05T07:24:12.884Z,20.63
2023-01-05T07:26:44.092Z,20.61
2023-01-05T07:29:15.158Z,20.59
2023-01-05T07:31:48.995Z,20.59
2023-01-05T07:34:20.795Z,20.54
2023-01-05T07:36:52.096Z,20.45
2023-01-05T07:39:26.722Z,20.42
2023-01-05T07:41:58.222Z,20.38
2023-01-05T07:44:30.444Z,20.29
2023-01-05T07:47:01.976Z,20.32
2023-01-05T07:49:32.943Z,20.34
2023-01-05T07:52:04.237Z,20.37
2023-01-05T07:54:35.418Z,20.32
2023-01-05T07:57:06.474Z,20.33
2023-01-05T07:59:37.576Z,20.32
2023-01-05T08:02:09.334Z,20.35
2023-01-05T08:04:40.084Z,20.27
2023-01-05T08:07:12.685Z,20.29
2023-01-05T08:10:02.755Z,20.26
2023-01-05T08:12:33.780Z,20.21
2023-01-05T08:15:04.935Z,20.20
2023-01-05T08:17:36.325Z,20.22
2023-01-05T08:20:07.872Z,20.16
2023-01-05T08:22:38.594Z,20.16
2023-01-05T08:25:10.315Z,20.13
2023-01-05T08:27:42.539Z,20.04
2023-01-05T08:30:14.297Z,20.00
2023-01-05T08:32:44.758Z,19.90
2023-01-05T08:35:16.225Z,19.82
2023-01-05T08:37:47.740Z,19.84
2023-01-05T08:40:19.114Z,19.72
2023-01-05T08:42:50.626Z,19.80
2023-01-05T08:45:21.931Z,19.74
2023-01-05T08:47:53.451Z,19.73
2023-01-05T08:50:24.943Z,19.74
2023-01-05T08:52:56.316Z,19.72
2023-01-05T08:55:27.601Z,19.63
2023-01-05T08:57:59.192Z,19.63
2023-01-05T09:00:30.459Z,19.69
2023-01-05T09:03:01.658Z,19.55
2023-01-05T09:05:33.164Z,19.65
2023-01-05T09:08:04.553Z,19.66
2023-01-05T09:10:35.599Z,19.70
2023-01-05T09:13:06.680Z,19.68
2023-01-05T09:15:37.796Z,19.64
2023-01-05T09:18:09.254Z,19.63
2023-01-05T09:20:40.803Z,19.69
2023-01-05T09:23:12.493Z,19.67
2023-01-05T09:25:43.614Z,19.64
2023-01-05T09:28:14.806Z,19.70
2023-01-05T09:30:50.321Z,19.68
2023-01-05T09:33:26.476Z,19.66
2023-01-05T09:35:59.686Z,19.68
2023-01-05T09:38:31.587Z,19.74
2023-01-05T09:41:25.178Z,19.71
2023-01-05T09:44:01.175Z,19.70
2023-01-05T09:46:41.219Z,19.71
2023-01-05T09:49:21.226Z,19.75
2023-01-05T09:51:58.476Z,19.74
2023-01-05T09:54:31.665Z,19.74
2023-01-05T09:57:11.131Z,19.72
2023-01-05T09:59:47.579Z,19.72
2023-01-05T10:02:41.811Z,19.76
2023-01-05T10:05:15.539Z,19.76
2023-01-05T10:07:48.470Z,19.81
2023-01-05T10:10:40.918Z,19.86
2023-01-05T10:13:24.415Z,19.83
2023-01-05T10:15:57.457Z,19.78
2023-01-05T10:18:30.181Z,19.79
2023-01-05T10:21:16.306Z,19.81
2023-01-05T10:23:53.376Z,19.73
2023-01-05T10:26:30.336Z,19.74
2023-01-05T10:29:23.733Z,19.73
2023-01-05T10:32:17.475Z,19.70
2023-01-05T10:35:09.300Z,19.73
2023-01-05T10:37:59.533Z,19.76
2023-01-05T10:41:04.555Z,19.73
2023-01-05T10:43:55.814Z,19.73
2023-01-05T10:46:34.945Z,19.71
2023-01-05T10:49:11.607Z,19.69
2023-01-05T10:51:42.760Z,19.70
2023-01-05T10:54:39.971Z,19.69
2023-01-05T10:57:36.341Z,19.69
2023-01-05T11:00:22.711Z,19.59
2023-01-05T11:03:09.720Z,19.62
2023-01-05T11:05:46.668Z,19.71
2023-01-05T11:08:20.826Z,19.67
2023-01-05T11:11:05.123Z,19.65
2023-01-05T11:13:48.151Z,19.62
2023-01-05T11:16:36.254Z,19.63
2023-01-05T11:19:16.892Z,19.62
2023-01-05T11:21:48.794Z,19.63
2023-01-05T11:24:26.435Z,19.64
2023-01-05T11:27:16.521Z,19.64
2023-01-05T11:29:47.493Z,19.69
2023-01-05T11:32:18.849Z,19.69
2023-01-05T11:34:53.187Z,19.68
2023-01-05T11:37:27.719Z,19.65
2023-01-05T11:40:03.918Z,19.62
2023-01-05T11:42:44.233Z,19.63
2023-01-05T11:45:30.119Z,19.64
2023-01-05T11:48:04.763Z,19.62
2023-01-05T11:50:41.663Z,19.68
2023-01-05T11:53:28.309Z,19.68
2023-01-05T11:56:06.216Z,19.69
2023-01-05T11:58:45.784Z,19.61
2023-01-05T12:01:35.252Z,19.65
2023-01-05T12:04:12.188Z,19.72
2023-01-05T12:07:04.394Z,19.68
2023-01-05T12:09:57.196Z,19.66
2023-01-05T12:12:43.453Z,19.67
2023-01-05T12:15:33.112Z,19.63
2023-01-05T12:18:45.761Z,19.55
2023-01-05T12:21:25.481Z,19.56
2023-01-05T12:24:22.158Z,19.54
2023-01-05T12:26:59.319Z,19.55
2023-01-05T12:36:29.378Z,19.45
2023-01-05T12:39:24.618Z,19.50
2023-01-05T12:42:04.477Z,19.56
2023-01-05T12:44:45.773Z,19.56
2023-01-05T12:47:45.055Z,19.50
2023-01-05T12:50:31.655Z,19.54
2023-01-05T12:53:16.951Z,19.55
2023-01-05T12:55:52.198Z,19.53
2023-01-05T12:58:34.920Z,19.52
2023-01-05T13:01:08.434Z,19.53
2023-01-05T13:03:51.201Z,19.57
2023-01-05T13:06:26.072Z,19.53
2023-01-05T13:09:04.329Z,19.45
2023-01-05T13:11:43.857Z,19.39
2023-01-05T13:14:46.641Z,19.44
2023-01-05T13:17:31.714Z,19.43
2023-01-05T13:20:28.623Z,19.41
2023-01-05T13:23:27.501Z,19.38
2023-01-05T13:26:07.677Z,19.47
2023-01-05T13:28:38.941Z,19.42
2023-01-05T13:31:26.314Z,19.47
2023-01-05T13:34:18.711Z,19.50
2023-01-05T13:37:07.585Z,19.46
2023-01-05T13:39:46.108Z,19.34
2023-01-05T13:42:33.309Z,19.41
2023-01-05T13:45:26.375Z,19.39
2023-01-05T13:48:38.658Z,19.35
2023-01-05T13:51:34.532Z,19.22
2023-01-05T13:54:10.671Z,19.27
2023-01-05T13:56:48.017Z,19.21
2023-01-05T13:59:39.913Z,19.24
2023-01-05T14:02:33.771Z,19.27
2023-01-05T14:05:26.540Z,19.25
2023-01-05T14:07:59.239Z,19.25
2023-01-05T14:10:32.559Z,19.30
2023-01-05T14:13:05.016Z,19.25
2023-01-05T14:15:44.939Z,19.26
2023-01-05T14:18:52.021Z,19.26
2023-01-05T14:21:55.448Z,19.22
2023-01-05T14:24:32.205Z,19.23
2023-01-05T14:27:13.197Z,19.27
2023-01-05T14:32:33.521Z,19.19
2023-01-05T14:35:08.717Z,19.21
2023-01-05T14:37:39.791Z,19.18
2023-01-05T14:40:46.028Z,19.19
2023-01-05T14:43:26.299Z,19.19
2023-01-05T14:46:11.107Z,19.26
2023-01-05T14:48:46.562Z,19.16
2023-01-05T14:51:27.718Z,19.04
2023-01-05T14:54:06.337Z,19.06
2023-01-05T14:56:39.144Z,19.03
2023-01-05T14:59:22.894Z,19.07
2023-01-05T15:02:04.205Z,19.01
2023-01-05T15:04:35.800Z,18.98
2023-01-05T15:07:36.636Z,18.98
2023-01-05T15:10:20.103Z,18.93
2023-01-05T15:12:53.594Z,18.80
2023-01-05T15:15:54.317Z,18.86
2023-01-05T15:19:01.472Z,18.78
2023-01-05T15:21:47.040Z,18.77
2023-01-05T15:24:49.989Z,18.76
2023-01-05T15:27:39.322Z,18.85
2023-01-05T15:30:37.740Z,18.80
2023-01-05T15:33:17.709Z,18.81
2023-01-05T15:35:59.225Z,18.81
2023-01-05T15:38:30.571Z,18.81
2023-01-05T15:41:10.427Z,18.84
2023-01-05T15:43:43.882Z,18.81
2023-01-05T15:46:24.262Z,18.79
2023-01-05T15:48:56.614Z,18.79
2023-01-05T15:51:36.022Z,18.77
2023-01-05T15:54:07.253Z,18.78
2023-01-05T15:56:43.801Z,18.85
2023-01-05T15:59:34.406Z,18.79
2023-01-05T16:02:24.701Z,18.81
2023-01-05T16:05:13.034Z,18.73
2023-01-05T16:07:55.885Z,18.72
2023-01-05T16:10:37.119Z,18.75
2023-01-05T16:13:16.287Z,18.81
2023-01-05T16:15:53.955Z,18.75
2023-01-05T16:18:36.553Z,18.76
2023-01-05T16:21:37.448Z,18.69
2023-01-05T16:24:20.619Z,18.79
2023-01-05T16:26:51.897Z,18.74
2023-01-05T16:29:46.398Z,18.71
2023-01-05T16:32:38.200Z,18.78
2023-01-05T16:35:36.812Z,18.75
2023-01-05T16:38:14.336Z,18.79
2023-01-05T16:40:49.047Z,18.80
2023-01-05T16:43:52.794Z,18.86
2023-01-05T16:46:30.396Z,18.77
2023-01-05T16:49:26.329Z,18.83
2023-01-05T16:51:58.217Z,18.82
2023-01-05T16:54:37.642Z,18.76
2023-01-05T16:57:37.230Z,18.78
2023-01-05T17:00:28.284Z,18.78
2023-01-05T17:03:20.976Z,18.84
2023-01-05T17:05:54.971Z,18.82
2023-01-05T17:08:29.442Z,18.84
2023-01-05T17:11:01.245Z,18.83
2023-01-05T17:13:44.464Z,18.78
2023-01-05T17:16:16.747Z,18.86
2023-01-05T17:18:48.783Z,18.87
2023-01-05T17:21:23.188Z,18.88
2023-01-05T17:24:02.057Z,18.90
2023-01-05T17:26:37.926Z,18.89
2023-01-05T17:29:09.850Z,18.96
2023-01-05T17:31:41.036Z,18.99
2023-01-05T17:34:11.876Z,18.97
2023-01-05T17:36:43.317Z,18.99
2023-01-05T17:39:17.794Z,19.03
2023-01-05T17:41:49.492Z,19.05
2023-01-05T17:44:20.726Z,19.03
2023-01-05T17:46:51.572Z,19.06
2023-01-05T17:49:23.672Z,19.07
2023-01-05T17:51:54.882Z,19.08
2023-01-05T17:54:25.964Z,19.07
2023-01-05T17:56:57.431Z,19.04
2023-01-05T17:59:29.291Z,19.05
2023-01-05T18:02:00.275Z,19.01
2023-01-05T18:04:35.371Z,19.06
2023-01-05T18:09:39.409Z,19.11
2023-01-05T18:12:10.491Z,19.10
2023-01-05T18:14:42.034Z,19.15
2023-01-05T18:17:13.634Z,19.20
2023-01-05T18:19:45.571Z,19.22
2023-01-05T18:22:17.368Z,19.28
2023-01-05T18:24:48.985Z,19.30
2023-01-05T18:27:20.309Z,19.29
2023-01-05T18:29:51.000Z,19.39
2023-01-05T18:32:22.409Z,19.45
2023-01-05T18:34:53.828Z,19.49
2023-01-05T18:40:01.494Z,19.63
2023-01-05T18:42:33.559Z,19.55
2023-01-05T18:45:14.220Z,19.62
2023-01-05T18:48:00.270Z,19.76
2023-01-05T18:50:35.831Z,19.85
2023-01-05T18:53:08.408Z,19.99
2023-01-05T18:55:44.763Z,19.99
2023-01-05T18:58:19.079Z,20.07
2023-01-05T19:00:50.186Z,20.11
2023-01-05T19:03:26.246Z,20.23
2023-01-05T19:05:57.480Z,20.31
2023-01-05T19:08:28.763Z,20.25
2023-01-05T19:11:00.152Z,20.55
2023-01-05T19:13:31.332Z,20.48
2023-01-05T19:16:05.664Z,20.65
2023-01-05T19:18:37.017Z,20.45
2023-01-05T19:21:08.007Z,20.73
2023-01-05T19:23:40.150Z,21.02
2023-01-05T19:26:11.957Z,21.16
2023-01-05T19:28:47.592Z,21.16
2023-01-05T19:31:21.291Z,21.15
2023-01-05T19:33:56.276Z,20.95
2023-01-05T19:36:36.350Z,21.01
2023-01-05T19:39:15.050Z,21.06
2023-01-05T19:41:47.677Z,21.40
2023-01-05T19:44:20.626Z,21.49
2023-01-05T19:46:55.569Z,21.47
2023-01-05T19:49:29.015Z,21.82
2023-01-05T19:52:00.003Z,22.07
2023-01-05T19:54:31.529Z,22.03
2023-01-05T19:57:02.597Z,21.83
2023-01-05T19:59:35.967Z,21.73
2023-01-05T20:02:07.854Z,22.00
2023-01-05T20:04:39.027Z,22.58
2023-01-05T20:07:11.692Z,22.69
2023-01-05T20:09:43.400Z,22.74
2023-01-05T20:12:15.452Z,22.78
2023-01-05T20:14:46.990Z,22.42
2023-01-05T20:17:17.962Z,22.68
2023-01-05T20:19:49.328Z,22.43
2023-01-05T20:22:20.394Z,22.43
2023-01-05T20:24:52.763Z,22.57
2023-01-05T20:27:24.309Z,22.74
2023-01-05T20:29:54.864Z,22.82
2023-01-05T20:32:27.303Z,23.03
2023-01-05T20:35:03.796Z,22.93
2023-01-05T20:37:35.316Z,23.03
2023-01-05T20:40:07.232Z,23.02
2023-01-05T20:42:38.969Z,23.25
2023-01-05T20:45:10.595Z,23.00
2023-01-05T20:47:47.414Z,23.04
2023-01-05T20:50:19.182Z,23.05
2023-01-05T20:52:51.291Z,22.55
2023-01-05T20:55:22.241Z,22.40
2023-01-05T20:57:53.640Z,22.48
2023-01-05T21:00:25.897Z,22.49
2023-01-05T21:02:57.289Z,22.52
2023-01-05T21:05:28.242Z,22.91
2023-01-05T21:07:59.515Z,22.93
2023-01-05T21:10:30.786Z,23.04
2023-01-05T21:13:30.577Z,23.29
2023-01-05T21:16:05.985Z,22.90
2023-01-05T21:18:37.074Z,22.91
2023-01-05T21:21:08.727Z,23.45
2023-01-05T21:23:39.768Z,23.36
2023-01-05T21:26:14.559Z,23.38
2023-01-05T21:28:47.966Z,23.72
2023-01-05T21:31:21.714Z,23.74
2023-01-05T21:33:53.151Z,23.70
2023-01-05T21:36:26.187Z,23.66
2023-01-05T21:39:00.918Z,23.78
2023-01-05T21:41:52.701Z,23.98
2023-01-05T21:44:24.123Z,23.34
2023-01-05T21:46:54.624Z,23.56
2023-01-05T21:49:25.898Z,23.06
2023-01-05T21:52:15.163Z,23.35
2023-01-05T21:55:04.644Z,23.28
2023-01-05T21:57:35.721Z,23.28
2023-01-05T22:00:07.713Z,23.08
2023-01-05T22:02:39.141Z,22.75
2023-01-05T22:05:10.478Z,22.81
2023-01-05T22:07:41.504Z,23.14
2023-01-05T22:10:12.927Z,23.01
2023-01-05T22:12:43.390Z,23.25
2023-01-05T22:15:14.492Z,23.07
2023-01-05T22:17:45.513Z,23.48
2023-01-05T22:20:17.504Z,23.48
2023-01-05T22:22:48.890Z,23.92
2023-01-05T22:25:19.816Z,23.72
2023-01-05T22:27:51.697Z,23.96
2023-01-05T22:30:23.083Z,23.90
2023-01-05T22:32:55.578Z,23.98
2023-01-05T22:35:27.206Z,23.77
2023-01-05T22:37:58.591Z,23.70
2023-01-05T22:40:29.482Z,23.35
2023-01-05T22:43:00.854Z,23.67
2023-01-05T22:45:33.904Z,23.72
2023-01-05T22:48:04.790Z,24.17
2023-01-05T22:50:36.095Z,24.53
2023-01-05T22:53:07.510Z,24.57
2023-01-05T22:55:38.203Z,24.55
2023-01-05T22:58:09.391Z,24.92
2023-01-05T23:00:40.831Z,25.25
2023-01-05T23:03:12.013Z,24.38
2023-01-05T23:05:43.455Z,24.85
2023-01-05T23:08:14.988Z,24.84
2023-01-05T23:10:45.636Z,24.96
2023-01-05T23:13:16.787Z,24.72
2023-01-05T23:15:47.503Z,25.81
2023-01-05T23:18:18.639Z,25.67
2023-01-05T23:21:01.453Z,25.91
2023-01-05T23:23:34.924Z,25.15
2023-01-05T23:26:07.777Z,24.79
2023-01-05T23:28:39.939Z,24.72
2023-01-05T23:31:12.830Z,24.80
2023-01-05T23:33:44.857Z,24.49
2023-01-05T23:36:18.014Z,24.30
2023-01-05T23:38:49.533Z,24.65
2023-01-05T23:41:20.749Z,24.56
2023-01-05T23:43:51.647Z,24.55
2023-01-05T23:46:24.445Z,24.38
2023-01-05T23:48:55.931Z,24.39
2023-01-05T23:51:27.190Z,23.93
2023-01-05T23:53:59.781Z,24.53
2023-01-05T23:56:32.324Z,24.46
2023-01-05T23:59:08.640Z,24.42
